createdAt,value
2022-07-25T00:00:48.698Z,1007.69
2022-07-25T00:01:48.852Z,1007.62
2022-07-25T00:02:48.669Z,1007.62
2022-07-25T00:03:48.790Z,1007.61
2022-07-25T00:04:48.718Z,1007.54
2022-07-25T00:05:48.622Z,1007.52
2022-07-25T00:06:48.627Z,1007.52
2022-07-25T00:07:48.591Z,1007.49
2022-07-25T00:08:48.598Z,1007.51
2022-07-25T00:09:48.563Z,1007.44
2022-07-25T00:10:48.554Z,1007.41
2022-07-25T00:11:48.536Z,1007.42
2022-07-25T00:12:48.525Z,1007.45
2022-07-25T00:13:48.522Z,1007.44
2022-07-25T00:14:48.485Z,1007.47
2022-07-25T00:15:48.581Z,1007.44
2022-07-25T00:16:48.459Z,1007.46
2022-07-25T00:17:48.446Z,1007.49
2022-07-25T00:18:48.491Z,1007.46
2022-07-25T00:19:48.411Z,1007.48
2022-07-25T00:20:48.397Z,1007.43
2022-07-25T00:21:48.481Z,1007.45
2022-07-25T00:22:48.380Z,1007.45
2022-07-25T00:23:48.376Z,1007.42
2022-07-25T00:24:48.354Z,1007.40
2022-07-25T00:25:48.324Z,1007.38
2022-07-25T00:26:48.308Z,1007.35
2022-07-25T00:27:48.289Z,1007.34
2022-07-25T00:28:48.279Z,1007.29
2022-07-25T00:29:48.280Z,1007.33
2022-07-25T00:30:48.343Z,1007.30
2022-07-25T00:31:48.260Z,1007.32
2022-07-25T00:32:48.218Z,1007.30
2022-07-25T00:33:48.211Z,1007.31
2022-07-25T00:34:48.189Z,1007.29
2022-07-25T00:35:48.198Z,1007.29
2022-07-25T00:36:48.167Z,1007.26
2022-07-25T00:37:48.147Z,1007.24
2022-07-25T00:38:48.135Z,1007.24
2022-07-25T00:39:48.115Z,1007.22
2022-07-25T00:40:54.703Z,1007.23
2022-07-25T00:41:48.105Z,1007.21
2022-07-25T00:42:48.067Z,1007.25
2022-07-25T00:43:48.058Z,1007.30
2022-07-25T00:44:48.042Z,1007.29
2022-07-25T00:45:48.039Z,1007.31
2022-07-25T00:46:48.029Z,1007.27
2022-07-25T00:47:48.014Z,1007.28
2022-07-25T00:48:48.089Z,1007.30
2022-07-25T00:49:47.970Z,1007.28
2022-07-25T00:50:47.955Z,1007.27
2022-07-25T00:51:47.945Z,1007.27
2022-07-25T00:52:47.945Z,1007.25
2022-07-25T00:53:47.914Z,1007.30
2022-07-25T00:54:47.907Z,1007.30
2022-07-25T00:55:47.883Z,1007.24
2022-07-25T00:56:47.885Z,1007.27
2022-07-25T00:57:47.850Z,1007.24
2022-07-25T00:58:47.848Z,1007.25
2022-07-25T00:59:47.817Z,1007.33
2022-07-25T01:00:47.806Z,1007.31
2022-07-25T01:01:48.198Z,1007.36
2022-07-25T01:02:47.844Z,1007.33
2022-07-25T01:03:47.755Z,1007.37
2022-07-25T01:04:47.745Z,1007.35
2022-07-25T01:05:53.107Z,1007.37
2022-07-25T01:06:47.716Z,1007.32
2022-07-25T01:07:47.700Z,1007.32
2022-07-25T01:08:47.704Z,1007.35
2022-07-25T01:09:47.688Z,1007.28
2022-07-25T01:10:47.657Z,1007.31
2022-07-25T01:11:47.642Z,1007.28
2022-07-25T01:12:47.623Z,1007.27
2022-07-25T01:13:47.607Z,1007.29
2022-07-25T01:14:47.618Z,1007.29
2022-07-25T01:15:47.631Z,1007.27
2022-07-25T01:16:47.566Z,1007.24
2022-07-25T01:17:47.555Z,1007.22
2022-07-25T01:18:47.563Z,1007.23
2022-07-25T01:19:47.538Z,1007.23
2022-07-25T01:20:47.520Z,1007.25
2022-07-25T01:21:47.487Z,1007.23
2022-07-25T01:22:47.530Z,1007.22
2022-07-25T01:23:47.470Z,1007.19
2022-07-25T01:24:47.445Z,1007.18
2022-07-25T01:25:47.432Z,1007.19
2022-07-25T01:26:47.416Z,1007.18
2022-07-25T01:27:52.794Z,1007.19
2022-07-25T01:28:47.404Z,1007.15
2022-07-25T01:29:47.371Z,1007.12
2022-07-25T01:30:47.429Z,1007.11
2022-07-25T01:31:47.357Z,1007.12
2022-07-25T01:32:47.347Z,1007.11
2022-07-25T01:33:47.311Z,1007.09
2022-07-25T01:34:47.314Z,1007.11
2022-07-25T01:35:47.292Z,1007.11
2022-07-25T01:36:47.277Z,1007.07
2022-07-25T01:37:47.266Z,1007.10
2022-07-25T01:38:47.233Z,1007.08
2022-07-25T01:39:47.226Z,1007.05
2022-07-25T01:40:47.203Z,1007.04
2022-07-25T01:41:47.208Z,1007.03
2022-07-25T01:42:47.187Z,1007.00
2022-07-25T01:43:47.157Z,1006.98
2022-07-25T01:44:47.138Z,1006.97
2022-07-25T01:45:47.193Z,1007.01
2022-07-25T01:46:47.177Z,1007.02
2022-07-25T01:47:47.097Z,1007.03
2022-07-25T01:48:47.167Z,1007.05
2022-07-25T01:49:47.071Z,1007.06
2022-07-25T01:50:47.052Z,1007.00
2022-07-25T01:51:47.070Z,1007.02
2022-07-25T01:52:47.023Z,1007.00
2022-07-25T01:53:47.020Z,1007.00
2022-07-25T01:54:46.992Z,1006.98
2022-07-25T01:55:46.975Z,1006.97
2022-07-25T01:56:48.243Z,1006.92
2022-07-25T01:57:50.046Z,1006.97
2022-07-25T01:58:46.931Z,1006.95
2022-07-25T01:59:46.917Z,1006.94
2022-07-25T02:00:46.924Z,1006.93
2022-07-25T02:01:46.932Z,1006.91
2022-07-25T02:02:46.863Z,1006.90
2022-07-25T02:03:48.936Z,1006.90
2022-07-25T02:04:46.966Z,1006.90
2022-07-25T02:05:46.864Z,1006.89
2022-07-25T02:06:46.806Z,1006.89
2022-07-25T02:07:46.797Z,1006.90
2022-07-25T02:08:46.782Z,1006.84
2022-07-25T02:09:46.775Z,1006.86
2022-07-25T02:10:46.769Z,1006.87
2022-07-25T02:11:46.730Z,1006.90
2022-07-25T02:12:46.721Z,1006.84
2022-07-25T02:13:46.704Z,1006.83
2022-07-25T02:14:46.694Z,1006.82
2022-07-25T02:15:46.686Z,1006.82
2022-07-25T02:16:46.702Z,1006.81
2022-07-25T02:17:46.639Z,1006.80
2022-07-25T02:18:46.632Z,1006.80
2022-07-25T02:19:46.608Z,1006.78
2022-07-25T02:20:46.611Z,1006.75
2022-07-25T02:21:46.575Z,1006.73
2022-07-25T02:22:46.563Z,1006.75
2022-07-25T02:23:46.564Z,1006.72
2022-07-25T02:24:46.534Z,1006.69
2022-07-25T02:25:46.512Z,1006.72
2022-07-25T02:26:46.501Z,1006.66
2022-07-25T02:27:46.498Z,1006.68
2022-07-25T02:28:46.471Z,1006.67
2022-07-25T02:29:46.456Z,1006.63
2022-07-25T02:30:46.527Z,1006.64
2022-07-25T02:31:46.452Z,1006.62
2022-07-25T02:32:46.409Z,1006.59
2022-07-25T02:33:46.397Z,1006.60
2022-07-25T02:34:46.377Z,1006.57
2022-07-25T02:35:46.362Z,1006.58
2022-07-25T02:36:46.348Z,1006.59
2022-07-25T02:37:46.349Z,1006.54
2022-07-25T02:38:46.320Z,1006.53
2022-07-25T02:39:46.299Z,1006.51
2022-07-25T02:40:46.285Z,1006.50
2022-07-25T02:41:46.281Z,1006.47
2022-07-25T02:42:46.274Z,1006.48
2022-07-25T02:43:46.241Z,1006.47
2022-07-25T02:44:46.247Z,1006.47
2022-07-25T02:45:46.268Z,1006.44
2022-07-25T02:46:46.197Z,1006.40
2022-07-25T02:47:46.185Z,1006.40
2022-07-25T02:48:46.205Z,1006.39
2022-07-25T02:49:46.161Z,1006.41
2022-07-25T02:50:46.128Z,1006.41
2022-07-25T02:51:46.115Z,1006.38
2022-07-25T02:52:46.097Z,1006.33
2022-07-25T02:53:57.108Z,1006.34
2022-07-25T02:54:46.084Z,1006.32
2022-07-25T02:55:46.089Z,1006.33
2022-07-25T02:56:46.037Z,1006.32
2022-07-25T02:57:46.023Z,1006.33
2022-07-25T02:58:46.008Z,1006.31
2022-07-25T02:59:46.009Z,1006.28
2022-07-25T03:00:45.979Z,1006.28
2022-07-25T03:01:46.036Z,1006.27
2022-07-25T03:02:45.947Z,1006.28
2022-07-25T03:03:46.030Z,1006.27
2022-07-25T03:04:45.914Z,1006.28
2022-07-25T03:05:45.927Z,1006.26
2022-07-25T03:06:45.886Z,1006.24
2022-07-25T03:07:45.871Z,1006.26
2022-07-25T03:08:45.869Z,1006.27
2022-07-25T03:09:45.837Z,1006.26
2022-07-25T03:10:45.824Z,1006.19
2022-07-25T03:11:45.827Z,1006.17
2022-07-25T03:12:45.793Z,1006.19
2022-07-25T03:13:45.774Z,1006.17
2022-07-25T03:14:45.763Z,1006.16
2022-07-25T03:15:45.755Z,1006.16
2022-07-25T03:16:45.779Z,1006.16
2022-07-25T03:17:45.717Z,1006.15
2022-07-25T03:18:45.701Z,1006.14
2022-07-25T03:19:45.683Z,1006.15
2022-07-25T03:20:45.668Z,1006.14
2022-07-25T03:21:45.651Z,1006.09
2022-07-25T03:22:45.652Z,1006.08
2022-07-25T03:23:50.457Z,1006.09
2022-07-25T03:24:45.605Z,1006.07
2022-07-25T03:25:45.602Z,1006.07
2022-07-25T03:26:45.578Z,1006.05
2022-07-25T03:27:45.577Z,1006.03
2022-07-25T03:28:45.545Z,1006.02
2022-07-25T03:29:45.528Z,1006.01
2022-07-25T03:30:45.519Z,1005.99
2022-07-25T03:31:45.528Z,1005.93
2022-07-25T03:32:45.498Z,1005.90
2022-07-25T03:33:45.486Z,1005.95
2022-07-25T03:34:45.466Z,1005.93
2022-07-25T03:35:45.431Z,1005.90
2022-07-25T03:36:45.414Z,1005.88
2022-07-25T03:37:45.408Z,1005.91
2022-07-25T03:38:45.386Z,1005.88
2022-07-25T03:39:45.388Z,1005.88
2022-07-25T03:40:45.351Z,1005.90
2022-07-25T03:41:45.334Z,1005.88
2022-07-25T03:42:45.319Z,1005.89
2022-07-25T03:43:45.322Z,1005.88
2022-07-25T03:44:45.291Z,1005.93
2022-07-25T03:45:45.342Z,1005.95
2022-07-25T03:46:45.256Z,1005.94
2022-07-25T03:47:45.247Z,1005.94
2022-07-25T03:48:45.332Z,1005.90
2022-07-25T03:49:45.242Z,1005.90
2022-07-25T03:50:45.212Z,1005.86
2022-07-25T03:51:45.180Z,1005.86
2022-07-25T03:52:45.161Z,1005.85
2022-07-25T03:53:45.148Z,1005.88
2022-07-25T03:54:45.137Z,1005.88
2022-07-25T03:55:45.133Z,1005.85
2022-07-25T03:56:45.106Z,1005.83
2022-07-25T03:57:45.093Z,1005.81
2022-07-25T03:58:45.070Z,1005.82
2022-07-25T03:59:45.053Z,1005.79
2022-07-25T04:00:45.106Z,1005.80
2022-07-25T04:01:45.025Z,1005.81
2022-07-25T04:02:45.097Z,1005.80
2022-07-25T04:03:45.025Z,1005.81
2022-07-25T04:04:44.984Z,1005.79
2022-07-25T04:05:47.553Z,1005.78
2022-07-25T04:06:44.967Z,1005.74
2022-07-25T04:07:44.931Z,1005.78
2022-07-25T04:08:44.928Z,1005.75
2022-07-25T04:09:44.906Z,1005.74
2022-07-25T04:10:44.886Z,1005.72
2022-07-25T04:11:44.883Z,1005.70
2022-07-25T04:12:44.869Z,1005.68
2022-07-25T04:13:44.843Z,1005.72
2022-07-25T04:14:44.828Z,1005.67
2022-07-25T04:15:44.809Z,1005.70
2022-07-25T04:16:44.825Z,1005.65
2022-07-25T04:17:44.793Z,1005.66
2022-07-25T04:18:44.755Z,1005.63
2022-07-25T04:19:44.741Z,1005.63
2022-07-25T04:20:44.723Z,1005.64
2022-07-25T04:21:44.713Z,1005.66
2022-07-25T04:22:46.891Z,1005.68
2022-07-25T04:23:44.680Z,1005.69
2022-07-25T04:24:44.663Z,1005.64
2022-07-25T04:25:44.648Z,1005.67
2022-07-25T04:26:44.630Z,1005.70
2022-07-25T04:27:44.621Z,1005.69
2022-07-25T04:28:44.659Z,1005.65
2022-07-25T04:29:44.586Z,1005.64
2022-07-25T04:30:44.570Z,1005.63
2022-07-25T04:31:44.625Z,1005.68
2022-07-25T04:32:44.541Z,1005.62
2022-07-25T04:33:51.087Z,1005.63
2022-07-25T04:34:44.534Z,1005.58
2022-07-25T04:35:44.487Z,1005.58
2022-07-25T04:36:44.494Z,1005.59
2022-07-25T04:37:44.459Z,1005.48
2022-07-25T04:38:44.456Z,1005.56
2022-07-25T04:39:44.448Z,1005.52
2022-07-25T04:40:44.413Z,1005.48
2022-07-25T04:41:44.411Z,1005.47
2022-07-25T04:42:46.493Z,1005.49
2022-07-25T04:43:48.462Z,1005.45
2022-07-25T04:44:44.356Z,1005.45
2022-07-25T04:45:44.385Z,1005.42
2022-07-25T04:46:44.327Z,1005.41
2022-07-25T04:47:44.305Z,1005.41
2022-07-25T04:48:46.420Z,1005.39
2022-07-25T04:49:44.295Z,1005.39
2022-07-25T04:50:44.285Z,1005.36
2022-07-25T04:51:44.245Z,1005.40
2022-07-25T04:52:44.237Z,1005.39
2022-07-25T04:53:44.220Z,1005.37
2022-07-25T04:54:44.207Z,1005.35
2022-07-25T04:55:44.185Z,1005.32
2022-07-25T04:56:45.572Z,1005.34
2022-07-25T04:57:44.154Z,1005.30
2022-07-25T04:58:44.151Z,1005.24
2022-07-25T04:59:44.129Z,1005.25
2022-07-25T05:00:44.148Z,1005.25
2022-07-25T05:01:44.157Z,1005.23
2022-07-25T05:02:44.114Z,1005.20
2022-07-25T05:03:49.806Z,1005.21
2022-07-25T05:04:45.537Z,1005.18
2022-07-25T05:05:44.058Z,1005.20
2022-07-25T05:06:44.022Z,1005.20
2022-07-25T05:07:44.030Z,1005.20
2022-07-25T05:08:43.994Z,1005.16
2022-07-25T05:09:44.001Z,1005.18
2022-07-25T05:10:43.965Z,1005.14
2022-07-25T05:11:47.415Z,1005.19
2022-07-25T05:12:43.935Z,1005.17
2022-07-25T05:13:43.915Z,1005.20
2022-07-25T05:14:43.899Z,1005.17
2022-07-25T05:15:43.889Z,1005.18
2022-07-25T05:16:43.982Z,1005.16
2022-07-25T05:17:43.878Z,1005.15
2022-07-25T05:18:43.859Z,1005.15
2022-07-25T05:19:43.824Z,1005.17
2022-07-25T05:20:43.809Z,1005.16
2022-07-25T05:21:43.820Z,1005.19
2022-07-25T05:22:43.805Z,1005.16
2022-07-25T05:23:43.785Z,1005.18
2022-07-25T05:24:43.749Z,1005.18
2022-07-25T05:25:43.736Z,1005.19
2022-07-25T05:26:43.720Z,1005.17
2022-07-25T05:27:43.710Z,1005.16
2022-07-25T05:28:43.705Z,1005.18
2022-07-25T05:29:43.673Z,1005.20
2022-07-25T05:30:43.671Z,1005.20
2022-07-25T05:31:43.702Z,1005.23
2022-07-25T05:32:43.628Z,1005.26
2022-07-25T05:33:43.638Z,1005.24
2022-07-25T05:34:43.622Z,1005.24
2022-07-25T05:35:43.588Z,1005.25
2022-07-25T05:36:47.146Z,1005.25
2022-07-25T05:37:43.550Z,1005.26
2022-07-25T05:38:43.561Z,1005.25
2022-07-25T05:39:43.523Z,1005.24
2022-07-25T05:40:43.518Z,1005.24
2022-07-25T05:41:43.494Z,1005.27
2022-07-25T05:42:43.511Z,1005.21
2022-07-25T05:43:43.533Z,1005.19
2022-07-25T05:44:43.524Z,1005.17
2022-07-25T05:45:43.503Z,1005.19
2022-07-25T05:46:43.556Z,1005.20
2022-07-25T05:47:43.409Z,1005.19
2022-07-25T05:48:43.453Z,1005.17
2022-07-25T05:49:43.374Z,1005.16
2022-07-25T05:50:43.367Z,1005.15
2022-07-25T05:51:43.367Z,1005.14
2022-07-25T05:52:43.333Z,1005.14
2022-07-25T05:53:43.343Z,1005.09
2022-07-25T05:54:43.301Z,1005.14
2022-07-25T05:55:43.288Z,1005.09
2022-07-25T06:09:50.153Z,1005.08
2022-07-25T06:10:50.120Z,1005.04
2022-07-25T06:11:58.132Z,1004.99
2022-07-25T06:12:50.106Z,1004.98
2022-07-25T06:13:50.073Z,1005.00
2022-07-25T06:14:50.116Z,1004.97
2022-07-25T06:15:50.114Z,1004.97
2022-07-25T06:16:50.070Z,1004.97
2022-07-25T06:17:50.073Z,1004.96
2022-07-25T06:18:50.011Z,1004.96
2022-07-25T06:19:49.984Z,1005.02
2022-07-25T06:20:49.974Z,1004.99
2022-07-25T06:21:49.958Z,1005.03
2022-07-25T06:22:49.937Z,1005.07
2022-07-25T06:23:49.951Z,1005.07
2022-07-25T06:24:49.906Z,1005.03
2022-07-25T06:25:50.276Z,1005.04
2022-07-25T06:26:49.878Z,1004.97
2022-07-25T06:27:49.867Z,1004.91
2022-07-25T06:28:49.871Z,1004.91
2022-07-25T06:29:49.841Z,1004.96
2022-07-25T06:30:49.841Z,1004.96
2022-07-25T06:31:49.869Z,1005.01
2022-07-25T06:32:49.798Z,1005.00
2022-07-25T06:33:49.780Z,1005.04
2022-07-25T06:34:49.777Z,1005.04
2022-07-25T06:35:49.753Z,1005.10
2022-07-25T06:36:49.740Z,1005.10
2022-07-25T06:37:49.724Z,1005.10
2022-07-25T06:38:49.704Z,1005.09
2022-07-25T06:39:49.711Z,1005.09
2022-07-25T06:40:49.679Z,1005.08
2022-07-25T06:41:49.665Z,1005.05
2022-07-25T06:42:49.652Z,1005.04
2022-07-25T06:43:49.639Z,1005.01
2022-07-25T06:44:49.641Z,1005.01
2022-07-25T06:45:49.634Z,1005.03
2022-07-25T06:46:50.180Z,1005.02
2022-07-25T06:47:49.579Z,1005.00
2022-07-25T06:48:49.640Z,1005.02
2022-07-25T06:49:49.552Z,1005.02
2022-07-25T06:50:49.551Z,1005.05
2022-07-25T06:51:49.540Z,1004.99
2022-07-25T06:52:49.511Z,1005.00
2022-07-25T06:53:49.493Z,1004.99
2022-07-25T06:54:49.508Z,1005.01
2022-07-25T06:55:49.486Z,1004.98
2022-07-25T06:56:49.461Z,1004.98
2022-07-25T06:57:49.439Z,1004.95
2022-07-25T06:58:49.426Z,1004.97
2022-07-25T06:59:49.412Z,1004.95
2022-07-25T07:00:49.468Z,1004.93
2022-07-25T07:01:51.671Z,1004.96
2022-07-25T07:02:49.390Z,1004.95
2022-07-25T07:03:49.413Z,1004.96
2022-07-25T07:04:49.347Z,1004.95
2022-07-25T07:05:49.329Z,1004.94
2022-07-25T07:06:49.321Z,1004.99
2022-07-25T07:07:49.317Z,1005.02
2022-07-25T07:08:49.293Z,1005.03
2022-07-25T07:11:31.554Z,1004.95
2022-07-25T07:12:31.564Z,1005.00
2022-07-25T07:13:31.610Z,1005.01
2022-07-25T07:14:31.512Z,1004.97
2022-07-25T07:15:31.477Z,1004.89
2022-07-25T07:16:31.567Z,1004.88
2022-07-25T07:17:31.490Z,1004.88
2022-07-25T07:18:31.440Z,1004.85
2022-07-25T07:19:31.426Z,1004.81
2022-07-25T07:20:31.437Z,1004.78
2022-07-25T07:21:31.399Z,1004.75
2022-07-25T07:22:31.385Z,1004.81
2022-07-25T07:23:31.384Z,1004.92
2022-07-25T07:24:31.363Z,1004.94
2022-07-25T07:25:31.369Z,1004.96
2022-07-25T07:26:31.336Z,1004.93
2022-07-25T07:27:31.320Z,1004.93
2022-07-25T07:28:31.309Z,1004.90
2022-07-25T07:29:31.298Z,1004.88
2022-07-25T07:30:58.307Z,1004.85
2022-07-25T07:31:31.374Z,1004.89
2022-07-25T07:32:31.270Z,1004.93
2022-07-25T07:33:31.241Z,1004.96
2022-07-25T07:34:31.239Z,1004.97
2022-07-25T07:35:31.241Z,1004.92
2022-07-25T07:36:31.207Z,1004.89
2022-07-25T07:37:35.861Z,1004.91
2022-07-25T07:38:31.179Z,1004.95
2022-07-25T07:39:31.164Z,1004.97
2022-07-25T07:40:31.175Z,1005.01
2022-07-25T07:41:31.134Z,1005.01
2022-07-25T07:42:31.141Z,1005.00
2022-07-25T07:43:31.109Z,1005.01
2022-07-25T07:44:31.098Z,1004.99
2022-07-25T07:45:31.082Z,1004.94
2022-07-25T07:46:31.184Z,1004.98
2022-07-25T07:47:31.060Z,1005.00
2022-07-25T07:48:31.279Z,1005.02
2022-07-25T07:49:31.034Z,1005.04
2022-07-25T07:50:31.021Z,1005.02
2022-07-25T07:51:31.007Z,1005.05
2022-07-25T07:52:30.998Z,1004.99
2022-07-25T07:53:31.010Z,1005.02
2022-07-25T07:54:30.970Z,1005.00
2022-07-25T07:55:30.952Z,1005.02
2022-07-25T07:56:30.941Z,1004.95
2022-07-25T07:57:30.927Z,1004.99
2022-07-25T07:58:30.914Z,1005.04
2022-07-25T07:59:30.954Z,1005.02
2022-07-25T08:00:30.894Z,1005.05
2022-07-25T08:01:30.924Z,1005.14
2022-07-25T08:02:30.931Z,1005.14
2022-07-25T08:03:30.851Z,1005.19
2022-07-25T08:04:30.837Z,1005.16
2022-07-25T08:05:30.846Z,1005.10
2022-07-25T08:06:30.821Z,1005.07
2022-07-25T08:07:30.798Z,1005.05
2022-07-25T08:08:31.679Z,1005.07
2022-07-25T08:09:30.781Z,1005.10
2022-07-25T08:10:30.761Z,1005.10
2022-07-25T08:11:30.766Z,1005.09
2022-07-25T08:12:30.743Z,1005.11
2022-07-25T08:13:30.834Z,1005.11
2022-07-25T08:14:30.709Z,1005.12
2022-07-25T08:15:30.697Z,1005.15
2022-07-25T08:16:30.794Z,1005.13
2022-07-25T08:17:30.671Z,1005.15
2022-07-25T08:18:30.673Z,1005.16
2022-07-25T08:19:30.648Z,1005.19
2022-07-25T08:20:38.710Z,1005.19
2022-07-25T08:21:30.638Z,1005.16
2022-07-25T08:22:30.611Z,1005.09
2022-07-25T08:23:30.596Z,1005.12
2022-07-25T08:24:30.577Z,1005.08
2022-07-25T08:25:30.572Z,1005.08
2022-07-25T08:26:30.578Z,1005.04
2022-07-25T08:27:30.547Z,1005.03
2022-07-25T08:28:30.538Z,1005.00
2022-07-25T08:29:30.519Z,1005.03
2022-07-25T08:30:30.506Z,1005.01
2022-07-25T08:31:30.557Z,1005.06
2022-07-25T08:32:30.495Z,1005.08
2022-07-25T08:33:30.497Z,1005.15
2022-07-25T08:34:30.451Z,1005.17
2022-07-25T08:35:30.454Z,1005.21
2022-07-25T08:36:34.596Z,1005.23
2022-07-25T08:37:30.417Z,1005.21
2022-07-25T08:38:30.420Z,1005.25
2022-07-25T08:39:30.399Z,1005.29
2022-07-25T08:40:30.378Z,1005.31
2022-07-25T08:41:30.366Z,1005.21
2022-07-25T08:42:30.352Z,1005.18
2022-07-25T08:43:30.349Z,1005.15
2022-07-25T08:44:30.323Z,1005.11
2022-07-25T08:45:30.309Z,1005.09
2022-07-25T08:46:30.430Z,1005.09
2022-07-25T08:47:30.281Z,1005.08
2022-07-25T08:48:30.400Z,1005.09
2022-07-25T08:49:30.257Z,1005.15
2022-07-25T08:50:30.251Z,1005.18
2022-07-25T08:51:30.249Z,1005.21
2022-07-25T08:52:30.234Z,1005.18
2022-07-25T08:53:33.251Z,1005.17
2022-07-25T08:54:30.216Z,1005.17
2022-07-25T08:55:30.197Z,1005.17
2022-07-25T08:56:30.165Z,1005.18
2022-07-25T08:57:30.154Z,1005.17
2022-07-25T08:58:30.149Z,1005.14
2022-07-25T08:59:30.153Z,1005.16
2022-07-25T09:00:30.133Z,1005.18
2022-07-25T09:01:34.574Z,1005.16
2022-07-25T09:02:30.218Z,1005.24
2022-07-25T09:03:30.074Z,1005.22
2022-07-25T09:04:30.067Z,1005.20
2022-07-25T09:05:30.077Z,1005.21
2022-07-25T09:06:30.049Z,1005.22
2022-07-25T09:07:30.023Z,1005.21
2022-07-25T09:08:30.015Z,1005.22
2022-07-25T09:09:30.002Z,1005.27
2022-07-25T09:10:30.011Z,1005.27
2022-07-25T09:11:30.034Z,1005.30
2022-07-25T09:12:29.962Z,1005.29
2022-07-25T09:13:29.950Z,1005.30
2022-07-25T09:14:29.938Z,1005.30
2022-07-25T09:15:29.971Z,1005.32
2022-07-25T09:16:29.947Z,1005.31
2022-07-25T09:17:29.929Z,1005.34
2022-07-25T09:18:29.888Z,1005.31
2022-07-25T09:19:29.877Z,1005.32
2022-07-25T09:20:29.858Z,1005.37
2022-07-25T09:21:29.871Z,1005.39
2022-07-25T09:22:29.866Z,1005.42
2022-07-25T09:23:29.828Z,1005.47
2022-07-25T09:24:29.806Z,1005.44
2022-07-25T09:25:29.803Z,1005.42
2022-07-25T09:26:29.783Z,1005.40
2022-07-25T09:27:29.795Z,1005.41
2022-07-25T09:28:29.778Z,1005.42
2022-07-25T09:29:29.752Z,1005.43
2022-07-25T09:30:29.740Z,1005.42
2022-07-25T09:31:29.799Z,1005.43
2022-07-25T09:32:29.731Z,1005.40
2022-07-25T09:33:29.703Z,1005.45
2022-07-25T09:34:29.692Z,1005.48
2022-07-25T09:35:29.679Z,1005.53
2022-07-25T09:36:29.679Z,1005.53
2022-07-25T09:37:29.678Z,1005.52
2022-07-25T09:38:29.643Z,1005.51
2022-07-25T09:39:29.634Z,1005.55
2022-07-25T09:40:32.138Z,1005.59
2022-07-25T09:41:29.628Z,1005.60
2022-07-25T09:42:29.594Z,1005.62
2022-07-25T09:43:29.585Z,1005.64
2022-07-25T09:44:29.606Z,1005.61
2022-07-25T09:45:31.579Z,1005.64
2022-07-25T09:46:29.589Z,1005.65
2022-07-25T09:47:29.537Z,1005.59
2022-07-25T09:48:29.559Z,1005.60
2022-07-25T09:49:29.513Z,1005.59
2022-07-25T09:50:29.527Z,1005.65
2022-07-25T09:51:29.489Z,1005.66
2022-07-25T09:52:29.482Z,1005.65
2022-07-25T09:53:29.471Z,1005.68
2022-07-25T09:54:29.451Z,1005.66
2022-07-25T09:55:29.457Z,1005.72
2022-07-25T09:56:29.434Z,1005.70
2022-07-25T09:57:29.414Z,1005.77
2022-07-25T09:58:29.402Z,1005.77
2022-07-25T09:59:29.390Z,1005.75
2022-07-25T10:00:29.443Z,1005.78
2022-07-25T10:01:29.407Z,1005.79
2022-07-25T10:02:29.397Z,1005.80
2022-07-25T10:03:29.339Z,1005.83
2022-07-25T10:04:29.337Z,1005.82
2022-07-25T10:05:29.316Z,1005.82
2022-07-25T10:06:29.322Z,1005.83
2022-07-25T10:07:31.555Z,1005.89
2022-07-25T10:08:29.279Z,1005.87
2022-07-25T10:09:29.269Z,1005.93
2022-07-25T10:10:29.268Z,1005.93
2022-07-25T10:11:29.240Z,1005.98
2022-07-25T10:12:29.227Z,1005.93
2022-07-25T10:13:29.219Z,1005.92
2022-07-25T10:14:29.219Z,1005.92
2022-07-25T10:15:29.198Z,1005.93
2022-07-25T10:16:29.211Z,1005.90
2022-07-25T10:17:29.176Z,1005.88
2022-07-25T10:18:29.170Z,1005.84
2022-07-25T10:19:29.143Z,1005.84
2022-07-25T10:20:29.145Z,1005.79
2022-07-25T10:21:29.235Z,1005.77
2022-07-25T10:22:53.759Z,1005.72
2022-07-25T10:23:29.103Z,1005.69
2022-07-25T10:24:29.098Z,1005.65
2022-07-25T10:25:29.078Z,1005.67
2022-07-25T10:26:29.064Z,1005.77
2022-07-25T10:27:29.042Z,1005.75
2022-07-25T10:28:29.044Z,1005.69
2022-07-25T10:29:29.028Z,1005.76
2022-07-25T10:30:29.070Z,1005.74
2022-07-25T10:31:29.040Z,1005.70
2022-07-25T10:32:28.979Z,1005.72
2022-07-25T10:33:28.974Z,1005.61
2022-07-25T10:34:28.972Z,1005.68
2022-07-25T10:35:28.947Z,1005.68
2022-07-25T10:36:28.941Z,1005.76
2022-07-25T10:37:28.935Z,1005.64
2022-07-25T10:38:28.926Z,1005.63
2022-07-25T10:39:28.927Z,1005.60
2022-07-25T10:40:28.909Z,1005.59
2022-07-25T10:41:28.891Z,1005.55
2022-07-25T10:42:28.877Z,1005.58
2022-07-25T10:43:28.859Z,1005.64
2022-07-25T10:44:28.856Z,1005.64
2022-07-25T10:45:28.861Z,1005.58
2022-07-25T10:46:28.884Z,1005.57
2022-07-25T10:47:28.821Z,1005.54
2022-07-25T10:48:28.940Z,1005.57
2022-07-25T10:49:32.318Z,1005.57
2022-07-25T10:50:53.543Z,1005.65
2022-07-25T10:51:28.811Z,1005.61
2022-07-25T10:52:28.772Z,1005.66
2022-07-25T10:53:28.762Z,1005.71
2022-07-25T10:54:28.757Z,1005.87
2022-07-25T10:55:28.749Z,1005.80
2022-07-25T10:56:28.743Z,1005.86
2022-07-25T10:57:31.897Z,1005.88
2022-07-25T10:58:28.721Z,1005.88
2022-07-25T10:59:28.725Z,1005.90
2022-07-25T11:00:28.698Z,1005.97
2022-07-25T11:01:28.794Z,1005.94
2022-07-25T11:02:28.706Z,1005.95
2022-07-25T11:03:28.664Z,1005.93
2022-07-25T11:04:28.664Z,1005.93
2022-07-25T11:05:28.672Z,1005.89
2022-07-25T11:06:28.675Z,1005.92
2022-07-25T11:07:28.653Z,1005.93
2022-07-25T11:08:28.625Z,1005.85
2022-07-25T11:09:28.717Z,1005.82
2022-07-25T11:10:28.597Z,1005.84
2022-07-25T11:11:28.586Z,1005.84
2022-07-25T11:12:28.578Z,1005.88
2022-07-25T11:13:28.583Z,1005.89
2022-07-25T11:14:28.554Z,1005.87
2022-07-25T11:15:28.545Z,1005.83
2022-07-25T11:16:28.558Z,1005.88
2022-07-25T11:17:28.528Z,1005.87
2022-07-25T11:18:28.533Z,1005.85
2022-07-25T11:19:28.500Z,1005.84
2022-07-25T11:20:28.514Z,1005.86
2022-07-25T11:21:28.487Z,1005.90
2022-07-25T11:22:28.463Z,1005.90
2022-07-25T11:23:28.476Z,1005.88
2022-07-25T11:24:28.463Z,1005.87
2022-07-25T11:25:28.437Z,1005.89
2022-07-25T11:26:28.416Z,1005.84
2022-07-25T11:27:28.429Z,1005.88
2022-07-25T11:28:28.415Z,1006.04
2022-07-25T11:29:28.387Z,1005.92
2022-07-25T11:30:28.377Z,1005.84
2022-07-25T11:31:28.443Z,1005.86
2022-07-25T11:32:28.412Z,1005.89
2022-07-25T11:33:28.342Z,1005.91
2022-07-25T11:34:28.359Z,1005.87
2022-07-25T11:35:28.342Z,1005.88
2022-07-25T11:36:28.308Z,1005.91
2022-07-25T11:37:28.300Z,1005.90
2022-07-25T11:38:28.288Z,1005.86
2022-07-25T11:39:28.298Z,1005.85
2022-07-25T11:40:28.270Z,1005.91
2022-07-25T11:41:28.258Z,1006.00
2022-07-25T11:42:28.247Z,1006.00
2022-07-25T11:43:28.236Z,1006.05
2022-07-25T11:44:28.255Z,1006.04
2022-07-25T11:45:28.247Z,1005.95
2022-07-25T11:46:28.238Z,1005.93
2022-07-25T11:47:28.234Z,1005.92
2022-07-25T11:48:28.237Z,1005.99
2022-07-25T11:49:28.175Z,1006.04
2022-07-25T11:50:28.196Z,1006.10
2022-07-25T11:51:28.156Z,1006.07
2022-07-25T11:52:28.144Z,1006.00
2022-07-25T11:53:28.134Z,1006.02
2022-07-25T11:54:28.127Z,1006.04
2022-07-25T11:55:28.117Z,1005.96
2022-07-25T11:56:43.918Z,1005.96
2022-07-25T11:57:28.096Z,1005.96
2022-07-25T11:58:28.094Z,1005.91
2022-07-25T11:59:28.072Z,1005.91
2022-07-25T12:00:28.096Z,1005.93
2022-07-25T12:01:28.056Z,1005.89
2022-07-25T12:02:28.233Z,1005.92
2022-07-25T12:03:28.106Z,1005.93
2022-07-25T12:04:28.025Z,1005.91
2022-07-25T12:05:28.017Z,1005.82
2022-07-25T12:06:28.032Z,1005.93
2022-07-25T12:07:28.002Z,1005.98
2022-07-25T12:08:27.982Z,1005.96
2022-07-25T12:09:27.975Z,1005.95
2022-07-25T12:10:27.967Z,1006.00
2022-07-25T12:11:27.985Z,1005.96
2022-07-25T12:12:27.958Z,1005.99
2022-07-25T12:13:27.934Z,1006.00
2022-07-25T12:14:32.313Z,1006.00
2022-07-25T12:15:27.910Z,1006.00
2022-07-25T12:16:27.953Z,1005.99
2022-07-25T12:17:27.912Z,1005.95
2022-07-25T12:18:27.879Z,1006.03
2022-07-25T12:19:27.869Z,1005.96
2022-07-25T12:20:27.858Z,1005.94